Time;durP1;ratioP1;P1;durP2;ratioP2;P2;SDS_P1;SDS_P2;PMS_P1;PMS_P2;Temp;Humidity;BMP_temperature;BMP_pressure;BME280_temperature;BME280_humidity;BME280_pressure;Samples;Min_cycle;Max_cycle;Signal;HPM_P1;HPM_P2
2022/11/15 00:00:02;;;;;;;28.02;17.00;;;;;;;8.52;92.09;100864.69;5018973;28;20037;-53
2022/11/15 00:02:27;;;;;;;30.45;17.13;;;;;;;8.52;92.66;100874.06;5022800;28;20091;-66
2022/11/15 00:04:53;;;;;;;27.23;16.70;;;;;;;8.53;92.83;100871.56;5020182;28;20029;-64
2022/11/15 00:07:18;;;;;;;27.85;16.45;;;;;;;8.55;93.28;100869.03;5024600;28;20497;-66
2022/11/15 00:09:43;;;;;;;31.80;17.30;;;;;;;8.56;93.01;100866.56;5020201;28;20150;-63
2022/11/15 00:12:09;;;;;;;37.75;18.88;;;;;;;8.55;93.21;100869.94;5022859;28;20026;-67
2022/11/15 00:14:34;;;;;;;30.50;17.25;;;;;;;8.58;93.74;100861.47;5024112;28;20257;-67
2022/11/15 00:16:59;;;;;;;32.03;17.33;;;;;;;8.61;93.71;100866.69;5017184;28;20065;-59
2022/11/15 00:19:25;;;;;;;30.73;17.27;;;;;;;8.61;93.78;100869.25;5022635;28;20478;-67
2022/11/15 00:21:50;;;;;;;28.77;16.65;;;;;;;8.62;94.20;100865.03;5024896;28;20402;-66
2022/11/15 00:24:15;;;;;;;30.23;17.60;;;;;;;8.62;94.53;100871.03;5022643;28;20029;-59
2022/11/15 00:26:41;;;;;;;27.95;16.95;;;;;;;8.65;94.44;100863.44;5023630;28;20116;-64
2022/11/15 00:29:06;;;;;;;32.15;17.67;;;;;;;8.67;94.73;100863.47;5023506;28;20033;-65
2022/11/15 00:31:32;;;;;;;27.83;16.90;;;;;;;8.67;95.10;100858.34;5020404;28;20052;-54
2022/11/15 00:33:57;;;;;;;30.90;17.55;;;;;;;8.70;95.17;100853.34;5019354;28;20029;-67
2022/11/15 00:36:22;;;;;;;29.23;16.25;;;;;;;8.70;95.34;100859.34;5024381;28;20030;-63
2022/11/15 00:38:47;;;;;;;25.38;16.98;;;;;;;8.70;95.58;100856.78;5021538;28;20033;-58
2022/11/15 00:41:13;;;;;;;25.45;16.55;;;;;;;8.75;95.71;100857.81;5023134;28;20446;-60
2022/11/15 00:43:39;;;;;;;25.38;16.17;;;;;;;8.76;95.76;100857.00;5023845;28;20471;-60
2022/11/15 00:46:05;;;;;;;28.58;16.75;;;;;;;8.76;95.85;100851.00;5023255;28;20044;-63
2022/11/15 00:48:31;;;;;;;29.50;17.60;;;;;;;8.78;96.16;100855.34;5026657;28;20029;-67
2022/11/15 00:50:57;;;;;;;25.77;16.33;;;;;;;8.78;96.73;100845.09;5016938;28;20083;-62
2022/11/15 00:53:22;;;;;;;24.48;16.77;;;;;;;8.81;96.75;100842.66;5022242;28;20041;-52
2022/11/15 00:55:47;;;;;;;25.02;15.88;;;;;;;8.86;96.66;100847.94;5020359;28;20021;-66
2022/11/15 00:58:13;;;;;;;25.88;16.25;;;;;;;8.88;96.47;100838.59;5021140;28;20033;-65
2022/11/15 01:00:38;;;;;;;22.13;16.00;;;;;;;8.88;96.69;100833.47;5018494;28;20054;-59
2022/11/15 01:03:03;;;;;;;26.85;16.30;;;;;;;8.90;97.11;100836.97;5022724;28;20033;-59
2022/11/15 01:05:29;;;;;;;26.15;15.93;;;;;;;8.92;97.38;100835.34;5017843;28;20560;-58
2022/11/15 01:07:56;;;;;;;26.02;16.05;;;;;;;8.92;97.69;100827.66;5022248;28;20053;-66
2022/11/15 01:10:22;;;;;;;25.63;16.80;;;;;;;8.94;98.07;100827.69;5020923;28;20081;-67
2022/11/15 01:12:48;;;;;;;24.63;15.38;;;;;;;8.97;98.56;100832.91;5021107;28;20402;-61
2022/11/15 01:15:13;;;;;;;25.95;16.48;;;;;;;8.98;98.85;100827.84;5019716;28;20030;-61
2022/11/15 01:17:39;;;;;;;24.13;15.75;;;;;;;9.01;98.74;100835.63;5023782;28;20079;-62
2022/11/15 01:20:05;;;;;;;25.45;14.93;;;;;;;9.04;99.16;100822.94;5021895;28;20060;-53
2022/11/15 01:22:30;;;;;;;22.98;15.75;;;;;;;9.08;99.46;100823.88;5021953;28;20052;-67
2022/11/15 01:24:56;;;;;;;23.55;15.65;;;;;;;9.07;99.54;100825.56;5017844;28;20069;-64
2022/11/15 01:27:21;;;;;;;24.65;16.48;;;;;;;9.11;99.28;100813.75;5020982;28;20057;-68
2022/11/15 01:29:47;;;;;;;23.35;15.43;;;;;;;9.12;99.78;100818.91;5022874;28;20646;-61
2022/11/15 01:32:12;;;;;;;24.52;16.48;;;;;;;9.14;99.73;100813.81;5021758;28;20048;-67
2022/11/15 01:34:38;;;;;;;22.80;15.45;;;;;;;9.18;100.00;100810.56;5020737;28;20460;-67
2022/11/15 01:37:03;;;;;;;23.73;16.20;;;;;;;9.19;100.00;100804.59;5022231;28;20040;-64
2022/11/15 01:39:28;;;;;;;21.70;15.25;;;;;;;9.22;100.00;100797.00;5018872;28;20456;-65
2022/11/15 01:41:54;;;;;;;22.92;15.50;;;;;;;9.23;100.00;100803.88;5000381;28;22284;-63
2022/11/15 01:44:49;;;;;;;22.73;15.48;;;;;;;9.31;100.00;100801.56;5020267;28;20030;-65
2022/11/15 01:47:23;;;;;;;23.55;15.65;;;;;;;9.31;100.00;100801.56;5017742;28;20057;-67
2022/11/15 01:49:54;;;;;;;22.95;15.98;;;;;;;9.33;100.00;100802.47;5017608;28;20021;-63
2022/11/15 01:52:22;;;;;;;27.25;15.75;;;;;;;9.33;100.00;100799.91;5017443;28;20091;-67
2022/11/15 01:54:52;;;;;;;22.33;15.05;;;;;;;9.36;100.00;100798.31;5022480;28;20037;-57
2022/11/15 01:57:18;;;;;;;22.90;15.63;;;;;;;9.37;100.00;100799.19;5023585;28;20462;-62
2022/11/15 01:59:45;;;;;;;23.08;15.70;;;;;;;9.40;100.00;100801.81;5018019;28;20048;-57
2022/11/15 02:02:10;;;;;;;22.85;15.73;;;;;;;9.40;100.00;100801.81;5021245;28;20037;-59
2022/11/15 02:04:41;;;;;;;25.13;15.35;;;;;;;9.44;100.00;100800.25;5021720;28;20030;-53
2022/11/15 02:07:09;;;;;;;21.10;14.77;;;;;;;9.47;100.00;100803.78;5018946;28;20033;-67
2022/11/15 02:09:37;;;;;;;22.80;15.97;;;;;;;9.47;100.00;100796.09;5016894;28;20050;-59
2022/11/15 02:12:02;;;;;;;22.30;15.48;;;;;;;9.48;100.00;100792.69;5017644;28;20825;-49
2022/11/15 02:14:29;;;;;;;22.75;14.80;;;;;;;9.52;100.00;100793.66;5006649;28;20123;-67
2022/11/15 02:17:07;;;;;;;21.90;15.80;;;;;;;9.55;100.00;100780.91;5020493;28;20120;-64
2022/11/15 02:19:32;;;;;;;24.23;16.42;;;;;;;9.57;100.00;100779.25;5017854;28;20083;-67
2022/11/15 02:22:19;;;;;;;23.85;16.48;;;;;;;9.60;100.00;100771.66;5019255;28;20128;-63
2022/11/15 02:25:03;;;;;;;25.35;16.08;;;;;;;9.63;100.00;100766.63;5020967;28;20416;-60
2022/11/15 02:27:59;;;;;;;24.92;16.70;;;;;;;9.64;100.00;100769.22;5017451;28;20025;-59
2022/11/15 02:30:36;;;;;;;25.92;16.17;;;;;;;9.64;100.00;100769.22;5023325;28;20022;-67
2022/11/15 02:33:34;;;;;;;23.63;16.50;;;;;;;9.70;100.00;100770.22;5011666;28;20385;-59
2022/11/15 02:36:02;;;;;;;24.13;15.82;;;;;;;9.70;100.00;100770.22;5018854;28;20063;-63
2022/11/15 02:38:34;;;;;;;25.83;16.40;;;;;;;9.72;100.00;100766.03;5018874;28;20029;-59
2022/11/15 02:41:04;;;;;;;24.25;17.30;;;;;;;9.76;100.00;100773.84;5019408;28;20306;-67
2022/11/15 02:43:58;;;;;;;25.30;16.40;;;;;;;9.76;100.00;100767.84;5020306;28;20040;-52
2022/11/15 02:49:27;;;;;;;27.10;17.27;;;;;;;9.81;100.00;100753.44;5019448;28;20544;-64
2022/11/15 02:51:55;;;;;;;23.52;17.10;;;;;;;9.84;100.00;100746.72;5018040;28;20565;-63
2022/11/15 02:54:24;;;;;;;26.88;17.38;;;;;;;9.86;100.00;100751.91;5016588;28;20044;-63
2022/11/15 02:56:54;;;;;;;27.80;17.05;;;;;;;9.87;100.00;100751.06;5020462;28;20025;-64
2022/11/15 02:59:19;;;;;;;;;;;;;;;9.96;100.00;100750.47;5026954;28;20017;-67
2022/11/15 03:02:01;;;;;;;26.30;17.70;;;;;;;9.96;100.00;100750.47;5024431;28;19931;-63
2022/11/15 03:04:33;;;;;;;25.55;18.00;;;;;;;9.94;100.00;100738.44;5022042;28;20029;-67
2022/11/15 03:07:11;;;;;;;28.50;18.40;;;;;;;9.96;100.00;100738.50;5020788;28;20033;-68
2022/11/15 03:10:01;;;;;;;25.52;18.15;;;;;;;9.99;100.00;100740.28;5021949;28;20049;-66
2022/11/15 03:12:35;;;;;;;26.92;18.92;;;;;;;10.01;100.00;100742.06;5023848;28;20041;-66
2022/11/15 03:15:06;;;;;;;26.13;18.27;;;;;;;10.04;100.00;100744.72;5022592;28;20490;-65
2022/11/15 03:17:40;;;;;;;27.65;18.42;;;;;;;10.04;100.00;100749.84;5024333;28;20528;-66
2022/11/15 03:20:08;;;;;;;29.73;18.75;;;;;;;10.04;100.00;100743.84;5024785;28;20067;-65
2022/11/15 03:22:43;;;;;;;27.08;19.02;;;;;;;10.07;100.00;100747.38;5024553;28;20029;-63
2022/11/15 03:25:13;;;;;;;28.60;19.00;;;;;;;10.08;100.00;100749.13;5021880;28;20052;-63
2022/11/15 03:27:43;;;;;;;28.73;18.63;;;;;;;10.09;100.00;100750.84;5022909;28;20331;-55
2022/11/15 03:30:10;;;;;;;27.25;18.38;;;;;;;10.07;100.00;100747.38;5024761;28;20017;-67
2022/11/15 03:32:40;;;;;;;27.80;18.83;;;;;;;10.11;100.00;100745.75;5022852;28;20029;-63
2022/11/15 03:35:13;;;;;;;27.48;19.00;;;;;;;10.11;100.00;100751.75;5025349;28;20021;-65
2022/11/15 03:38:23;;;;;;;28.15;18.83;;;;;;;10.17;100.00;100753.63;5026191;28;20029;-63
2022/11/15 03:40:59;;;;;;;26.75;17.38;;;;;;;10.14;100.00;100744.16;4917499;29;20043;-67
2022/11/15 03:43:43;;;;;;;26.00;18.15;;;;;;;10.15;100.00;100747.59;4918550;29;20083;-66
2022/11/15 03:46:22;;;;;;;28.15;18.48;;;;;;;10.19;100.00;100746.81;4991374;28;20090;-67
2022/11/15 03:48:52;;;;;;;26.55;17.88;;;;;;;10.19;100.00;100745.16;5022754;28;20432;-59
2022/11/15 03:51:18;;;;;;;24.98;17.80;;;;;;;10.18;100.00;100740.81;5022594;28;20026;-67
2022/11/15 03:53:43;;;;;;;26.17;17.83;;;;;;;10.19;100.00;100746.81;5025351;28;20083;-66
2022/11/15 03:56:09;;;;;;;28.42;18.35;;;;;;;10.21;100.00;100748.63;5001458;28;20022;-57
2022/11/15 03:58:34;;;;;;;24.20;18.40;;;;;;;10.23;100.00;100742.66;5022067;28;20037;-50
2022/11/15 04:00:59;;;;;;;27.83;18.10;;;;;;;10.23;100.00;100738.41;5022268;28;20421;-63
2022/11/15 04:03:25;;;;;;;29.48;18.45;;;;;;;10.22;100.00;100741.78;5021462;28;20377;-65
2022/11/15 04:05:51;;;;;;;23.63;17.30;;;;;;;10.20;100.00;100751.16;5022957;28;20069;-62
2022/11/15 04:08:16;;;;;;;28.00;18.10;;;;;;;10.26;100.00;100750.50;5022849;28;20034;-60
2022/11/15 04:10:41;;;;;;;28.55;18.80;;;;;;;10.25;100.00;100743.59;5003004;28;20049;-66
2022/11/15 04:13:07;;;;;;;26.10;18.25;;;;;;;10.26;100.00;100746.22;5025095;28;20072;-59
2022/11/15 04:15:32;;;;;;;30.08;19.33;;;;;;;10.27;100.00;100739.38;5018080;28;20030;-66
2022/11/15 04:17:58;;;;;;;28.40;19.05;;;;;;;10.30;100.00;100742.03;5023982;28;20108;-64
2022/11/15 04:26:08;;;;;;;29.92;19.73;;;;;;;10.33;100.00;100742.13;5022355;28;20087;-57
2022/11/15 04:28:33;;;;;;;32.03;19.83;;;;;;;10.35;100.00;100735.31;5023776;28;20060;-54
2022/11/15 04:30:59;;;;;;;32.40;20.48;;;;;;;10.36;100.00;100726.75;5022302;28;20029;-63
2022/11/15 04:33:24;;;;;;;36.38;21.08;;;;;;;10.38;100.00;100732.84;5024044;28;20029;-54
2022/11/15 04:38:39;;;;;;;30.27;20.98;;;;;;;10.41;100.00;100731.19;5003142;28;20038;-66
2022/11/15 04:41:04;;;;;;;35.40;21.27;;;;;;;10.41;100.00;100741.47;5021339;28;20466;-48
2022/11/15 04:43:30;;;;;;;34.53;20.77;;;;;;;10.42;100.00;100739.78;5019085;28;20188;-66
2022/11/15 04:45:55;;;;;;;33.75;21.02;;;;;;;10.44;100.00;100740.72;5025637;28;20466;-61
2022/11/15 04:48:20;;;;;;;34.40;20.73;;;;;;;10.46;100.00;100745.06;5018954;28;20033;-65
2022/11/15 04:50:48;;;;;;;31.00;20.75;;;;;;;10.45;100.00;100745.88;5021642;28;20037;-65
2022/11/15 04:53:14;;;;;;;29.52;21.15;;;;;;;10.47;100.00;100751.06;5007397;28;20037;-67
2022/11/15 04:55:39;;;;;;;33.25;21.25;;;;;;;10.47;100.00;100740.78;5021104;28;20087;-62
2022/11/15 04:58:04;;;;;;;36.35;20.65;;;;;;;10.47;100.00;100735.63;5018898;28;20033;-54
2022/11/15 05:00:30;;;;;;;35.60;20.33;;;;;;;10.50;100.00;100740.00;5023200;28;20041;-66
2022/11/15 05:05:41;;;;;;;33.17;20.70;;;;;;;10.52;100.00;100738.34;5023885;28;20588;-66
2022/11/15 05:08:07;;;;;;;31.75;20.60;;;;;;;10.52;100.00;100738.34;5024839;28;20642;-62
2022/11/15 05:10:32;;;;;;;29.13;19.80;;;;;;;10.53;100.00;100742.63;5023209;28;20058;-64
2022/11/15 05:12:57;;;;;;;31.77;20.10;;;;;;;10.53;100.00;100737.50;5020848;28;20029;-59
2022/11/15 05:15:23;;;;;;;30.58;20.30;;;;;;;10.54;100.00;100734.97;5021449;28;20040;-66
2022/11/15 05:17:48;;;;;;;31.73;20.10;;;;;;;10.55;100.00;100734.13;5022879;28;20076;-66
2022/11/15 05:20:13;;;;;;;31.70;19.05;;;;;;;10.56;100.00;100740.16;5020795;28;20033;-65
2022/11/15 05:22:39;;;;;;;30.52;18.98;;;;;;;10.58;100.00;100741.06;5016040;28;20498;-65
2022/11/15 05:25:06;;;;;;;29.92;19.25;;;;;;;10.54;100.00;100731.53;5019546;28;20041;-47
2022/11/15 05:27:31;;;;;;;29.63;19.27;;;;;;;10.57;100.00;100729.03;5022187;28;20044;-61
2022/11/15 05:29:56;;;;;;;26.60;18.10;;;;;;;10.57;100.00;100731.63;5019534;28;20021;-67
2022/11/15 05:32:22;;;;;;;27.65;18.73;;;;;;;10.58;100.00;100728.22;5021953;28;20057;-67
2022/11/15 05:34:47;;;;;;;27.92;18.27;;;;;;;10.60;100.00;100724.84;5024157;28;20061;-67
2022/11/15 05:37:14;;;;;;;25.55;18.42;;;;;;;10.60;100.00;100729.97;5017599;28;20042;-62
2022/11/15 05:39:39;;;;;;;29.80;18.23;;;;;;;10.60;100.00;100724.84;5007744;28;20050;-66
2022/11/15 05:42:11;;;;;;;27.55;18.50;;;;;;;10.61;100.00;100726.56;5022143;28;20052;-54
2022/11/15 05:44:41;;;;;;;27.63;18.38;;;;;;;10.63;100.00;100722.34;5023162;28;20528;-67
2022/11/15 05:47:11;;;;;;;30.88;18.23;;;;;;;10.62;100.00;100720.63;5021522;28;20017;-53
2022/11/15 05:49:41;;;;;;;27.67;18.77;;;;;;;10.63;100.00;100719.78;5021823;28;20496;-65
2022/11/15 05:52:10;;;;;;;27.92;17.90;;;;;;;10.63;100.00;100721.50;5019070;28;20497;-67
2022/11/15 05:54:37;;;;;;;27.35;17.88;;;;;;;10.64;100.00;100723.22;5022719;28;20485;-66
2022/11/15 05:57:03;;;;;;;26.65;18.15;;;;;;;10.62;100.00;100719.75;5015701;28;20032;-60
2022/11/15 05:59:30;;;;;;;28.13;18.13;;;;;;;10.63;100.00;100722.34;5018808;28;20033;-64
2022/11/15 06:01:56;;;;;;;29.60;17.98;;;;;;;10.64;100.00;100731.81;5020728;28;20037;-58
2022/11/15 06:04:21;;;;;;;24.00;17.75;;;;;;;10.64;100.00;100729.25;5015499;28;20059;-64
2022/11/15 06:06:47;;;;;;;29.20;17.40;;;;;;;10.66;100.00;100739.56;5017515;28;20029;-63
2022/11/15 06:09:12;;;;;;;28.50;17.70;;;;;;;10.64;100.00;100738.66;5018927;28;20128;-62
2022/11/15 06:11:38;;;;;;;25.83;17.30;;;;;;;10.68;100.00;100736.22;5018003;28;20537;-59
2022/11/15 06:14:03;;;;;;;25.20;17.38;;;;;;;10.70;100.00;100743.94;5018889;28;20038;-61
2022/11/15 06:16:28;;;;;;;26.17;17.60;;;;;;;10.70;100.00;100746.53;5015906;28;20045;-53
2022/11/15 06:18:54;;;;;;;23.38;17.00;;;;;;;10.69;100.00;100743.09;5020172;28;20030;-59
2022/11/15 06:21:19;;;;;;;25.55;17.63;;;;;;;10.67;100.00;100742.16;5017524;28;20033;-55
2022/11/15 06:23:45;;;;;;;25.40;17.50;;;;;;;10.71;100.00;100750.84;5018777;28;20033;-56
2022/11/15 06:26:10;;;;;;;25.38;17.10;;;;;;;10.71;100.00;100751.69;5018105;28;20040;-62
2022/11/15 06:28:35;;;;;;;24.60;17.25;;;;;;;10.72;100.00;100748.28;5019641;28;20029;-55
2022/11/15 06:31:11;;;;;;;27.85;18.02;;;;;;;10.74;100.00;100758.66;5014709;28;20071;-46
2022/11/15 06:33:39;;;;;;;28.05;17.58;;;;;;;10.73;100.00;100762.88;5024146;28;20037;-56
2022/11/15 06:36:08;;;;;;;27.27;18.63;;;;;;;10.76;100.00;100761.25;5024140;28;20710;-47
2022/11/15 06:38:33;;;;;;;25.77;17.20;;;;;;;10.74;100.00;100762.09;5026809;28;20037;-61
2022/11/15 06:41:07;;;;;;;25.10;17.98;;;;;;;10.77;100.00;100758.69;5026545;28;20061;-62
2022/11/15 06:43:33;;;;;;;24.52;17.42;;;;;;;10.76;100.00;100756.97;5023733;28;20029;-57
2022/11/15 06:45:59;;;;;;;26.15;17.65;;;;;;;10.75;100.00;100762.94;5020094;28;20036;-62
2022/11/15 06:48:25;;;;;;;26.63;16.75;;;;;;;10.76;100.00;100758.69;5025202;28;20033;-61
2022/11/15 06:50:56;;;;;;;27.92;17.80;;;;;;;10.77;100.00;100763.84;5021198;28;20498;-57
2022/11/15 06:53:22;;;;;;;25.23;17.20;;;;;;;10.78;100.00;100769.84;5021308;28;20083;-61
2022/11/15 06:55:47;;;;;;;28.75;17.40;;;;;;;10.78;100.00;100772.44;5009056;28;20034;-63
2022/11/15 06:58:13;;;;;;;24.60;16.40;;;;;;;10.77;100.00;100770.69;5026809;28;20040;-62
2022/11/15 07:00:38;;;;;;;27.20;16.75;;;;;;;10.78;100.00;100775.88;5025947;28;20075;-60
2022/11/15 07:03:04;;;;;;;23.13;16.15;;;;;;;10.77;100.00;100776.72;5027553;28;21333;-61
2022/11/15 07:05:29;;;;;;;25.08;15.45;;;;;;;10.78;100.00;100775.00;5018126;28;20587;-54
2022/11/15 07:07:56;;;;;;;22.10;15.38;;;;;;;10.79;100.00;100780.19;5025949;28;20215;-63
2022/11/15 07:10:24;;;;;;;23.13;16.23;;;;;;;10.78;100.00;100775.88;5023540;28;20029;-65
2022/11/15 07:12:53;;;;;;;23.15;15.70;;;;;;;10.81;100.00;100777.66;5026811;28;20034;-62
2022/11/15 07:15:20;;;;;;;;;;;;;;;10.91;100.00;100777.91;5025219;28;21093;-54
2022/11/15 07:17:45;;;;;;;25.90;15.60;;;;;;;10.81;100.00;100772.53;5027305;28;19920;-63
2022/11/15 07:20:13;;;;;;;24.63;15.82;;;;;;;10.80;100.00;100787.09;5023578;28;20045;-64
2022/11/15 07:22:39;;;;;;;23.02;14.98;;;;;;;10.81;100.00;100788.81;5027158;28;20029;-59
2022/11/15 07:25:04;;;;;;;25.35;15.57;;;;;;;10.81;100.00;100786.25;5022317;28;20153;-56
2022/11/15 07:27:30;;;;;;;23.25;14.13;;;;;;;10.82;100.00;100789.69;5021101;28;20167;-63
2022/11/15 07:29:55;;;;;;;22.05;14.55;;;;;;;10.85;100.00;100787.19;5024744;28;20956;-63
2022/11/15 07:32:20;;;;;;;21.70;14.57;;;;;;;10.85;100.00;100790.63;5025546;28;20044;-48
2022/11/15 07:34:46;;;;;;;21.15;14.07;;;;;;;10.83;100.00;100781.16;5021471;28;20124;-56
2022/11/15 07:37:12;;;;;;;21.52;14.05;;;;;;;10.83;100.00;100783.72;5024341;28;20072;-51
2022/11/15 07:39:37;;;;;;;20.17;13.55;;;;;;;10.85;100.00;100782.03;5019077;28;21975;-54
2022/11/15 07:44:47;;;;;;;20.17;14.00;;;;;;;10.86;100.00;100783.78;5025083;28;20489;-57
2022/11/15 07:47:12;;;;;;;20.95;13.52;;;;;;;10.85;100.00;100777.75;5020100;28;20033;-57
2022/11/15 07:49:37;;;;;;;19.27;13.90;;;;;;;10.87;100.00;100767.53;5021468;28;20132;-56
2022/11/15 07:52:03;;;;;;;16.65;12.88;;;;;;;10.90;100.00;100772.75;5023393;28;20033;-57
2022/11/15 07:54:28;;;;;;;19.58;13.30;;;;;;;10.88;100.00;100771.84;5022798;28;20080;-61
2022/11/15 07:56:54;;;;;;;19.48;13.05;;;;;;;10.88;100.00;100772.72;5020313;28;20029;-60
2022/11/15 07:59:19;;;;;;;18.05;12.23;;;;;;;10.89;100.00;100766.72;5021578;28;20037;-61
2022/11/15 08:01:45;;;;;;;19.80;12.82;;;;;;;10.89;100.00;100776.16;5008254;28;20037;-62
2022/11/15 08:04:10;;;;;;;19.60;12.10;;;;;;;10.90;100.00;100771.03;5020452;28;20076;-57
2022/11/15 08:06:36;;;;;;;16.35;12.23;;;;;;;10.91;100.00;100775.34;5021874;28;20033;-50
2022/11/15 08:09:02;;;;;;;15.88;11.65;;;;;;;10.93;100.00;100784.00;5021225;28;20048;-61
2022/11/15 08:11:27;;;;;;;16.50;11.65;;;;;;;10.94;100.00;100788.31;5019604;28;20061;-62
2022/11/15 08:13:53;;;;;;;21.10;12.27;;;;;;;10.96;100.00;100790.91;5016475;28;20038;-54
2022/11/15 08:16:18;;;;;;;21.67;12.45;;;;;;;10.97;100.00;100790.94;5020973;28;20022;-54
2022/11/15 08:18:43;;;;;;;18.90;12.45;;;;;;;10.97;100.00;100790.94;5023871;28;20037;-51
2022/11/15 08:21:09;;;;;;;17.30;12.07;;;;;;;10.99;100.00;100798.72;5005481;28;20029;-60
2022/11/15 08:23:35;;;;;;;19.33;12.55;;;;;;;10.98;100.00;100791.81;5022819;28;20175;-59
2022/11/15 08:26:04;;;;;;;18.90;12.65;;;;;;;11.00;100.00;100793.59;5005316;28;20390;-60
2022/11/15 08:28:30;;;;;;;;;;;;;;;11.14;100.00;100793.94;5018264;28;20038;-60
2022/11/15 08:30:55;;;;;;;17.65;11.52;;;;;;;11.08;100.00;100787.78;5021547;28;20281;-61
2022/11/15 08:33:21;;;;;;;17.15;11.38;;;;;;;11.08;100.00;100780.91;5020511;28;20124;-53
2022/11/15 08:35:46;;;;;;;19.88;11.07;;;;;;;11.10;100.00;100780.94;5020412;28;20129;-61
2022/11/15 08:38:11;;;;;;;18.13;10.57;;;;;;;11.11;100.00;100778.44;5017709;28;20044;-56
2022/11/15 08:40:37;;;;;;;16.98;10.02;;;;;;;11.12;100.00;100777.59;5017261;28;20041;-58
2022/11/15 08:43:03;;;;;;;13.90;10.10;;;;;;;11.15;100.00;100775.09;5019382;28;20061;-61
2022/11/15 08:45:29;;;;;;;18.88;10.40;;;;;;;11.16;100.00;100774.28;5020445;28;20025;-59
2022/11/15 08:47:55;;;;;;;13.82;9.65;;;;;;;11.18;100.00;100764.88;5019882;28;20046;-54
2022/11/15 08:50:20;;;;;;;13.75;9.00;;;;;;;11.22;100.00;100761.56;5019600;28;20136;-58
2022/11/15 08:52:47;;;;;;;12.07;8.88;;;;;;;11.27;100.00;100759.94;5015545;28;20036;-57
2022/11/15 08:55:13;;;;;;;10.55;7.93;;;;;;;11.31;100.00;100765.16;5017946;28;20037;-62
2022/11/15 08:57:38;;;;;;;12.40;8.00;;;;;;;11.38;100.00;100760.19;5016930;28;20037;-59
2022/11/15 09:00:04;;;;;;;12.48;7.35;;;;;;;11.44;100.00;100756.88;5020648;28;20033;-63
2022/11/15 09:02:30;;;;;;;11.95;7.80;;;;;;;11.55;100.00;100758.00;5016845;28;20452;-50
2022/11/15 09:04:55;;;;;;;9.82;7.07;;;;;;;11.58;100.00;100760.63;5004501;28;20068;-55
2022/11/15 09:07:20;;;;;;;9.40;6.70;;;;;;;11.57;100.00;100756.31;5020159;28;20440;-62
2022/11/15 09:09:46;;;;;;;10.38;7.03;;;;;;;11.58;100.00;100752.91;5019506;28;20477;-58
2022/11/15 09:12:11;;;;;;;12.88;6.72;;;;;;;11.57;99.38;100750.31;5018683;28;20394;-61
2022/11/15 09:14:37;;;;;;;9.38;6.28;;;;;;;11.60;99.23;100743.53;5020003;28;20037;-59
2022/11/15 09:17:02;;;;;;;9.82;5.68;;;;;;;11.61;98.31;100739.25;5021419;28;20060;-58
2022/11/15 09:19:28;;;;;;;12.18;5.90;;;;;;;11.61;98.06;100734.97;5019174;28;20032;-54
2022/11/15 09:21:54;;;;;;;10.25;5.28;;;;;;;11.64;98.10;100734.16;5016933;28;20115;-60
2022/11/15 09:24:19;;;;;;;8.80;5.60;;;;;;;11.65;98.14;100725.56;5021108;28;20048;-61
2022/11/15 09:26:45;;;;;;;10.77;5.25;;;;;;;11.64;97.72;100724.72;5018079;28;20034;-63
2022/11/15 09:29:10;;;;;;;12.52;5.00;;;;;;;11.65;97.84;100723.91;5014155;28;20117;-62
2022/11/15 09:31:36;;;;;;;7.68;4.70;;;;;;;11.66;97.09;100723.06;5002203;28;20371;-57
2022/11/15 09:34:01;;;;;;;6.57;4.10;;;;;;;11.65;96.63;100725.56;5026208;28;20041;-62
2022/11/15 09:36:26;;;;;;;5.32;4.50;;;;;;;11.64;95.86;100724.72;5027283;28;20017;-56
2022/11/15 09:38:52;;;;;;;6.55;4.20;;;;;;;11.63;95.66;100730.69;5025754;28;20364;-60
2022/11/15 09:41:41;;;;;;;8.50;3.97;;;;;;;11.67;96.12;100717.06;5009569;28;20120;-61
2022/11/15 09:44:15;;;;;;;5.40;3.78;;;;;;;11.65;95.62;100723.91;5015373;28;20060;-61
2022/11/15 09:47:00;;;;;;;5.97;3.22;;;;;;;11.71;96.09;100725.72;5027992;28;20033;-59
2022/11/15 09:49:26;;;;;;;6.40;3.42;;;;;;;11.72;95.74;100722.31;5022783;28;20496;-62
2022/11/15 09:51:54;;;;;;;4.97;2.92;;;;;;;11.76;94.09;100714.66;5024156;28;20030;-62
2022/11/15 09:54:35;;;;;;;6.22;2.67;;;;;;;11.79;94.00;100714.75;5001228;28;20508;-62
2022/11/15 09:57:12;;;;;;;3.58;2.47;;;;;;;11.78;93.03;100713.00;5025437;28;20026;-62
2022/11/15 10:00:01;;;;;;;4.97;2.55;;;;;;;11.81;92.86;100713.09;5019832;28;20033;-61
2022/11/15 10:02:33;;;;;;;3.53;2.50;;;;;;;11.84;93.50;100716.59;5024672;28;20033;-61
2022/11/15 10:05:00;;;;;;;4.20;2.13;;;;;;;11.89;91.35;100713.28;5021600;28;20116;-60
2022/11/15 10:07:39;;;;;;;7.30;2.40;;;;;;;11.96;91.87;100706.53;5021331;28;20058;-62
2022/11/15 10:10:15;;;;;;;6.72;2.20;;;;;;;11.96;88.85;100704.81;5020716;28;20032;-52
2022/11/15 10:12:46;;;;;;;5.70;1.60;;;;;;;12.02;87.84;100711.81;5022187;28;20366;-62
2022/11/15 10:15:15;;;;;;;4.80;1.45;;;;;;;12.05;86.96;100704.13;5025527;28;20037;-61
2022/11/15 10:17:59;;;;;;;2.75;1.45;;;;;;;12.10;86.95;100697.34;5027067;28;20044;-61
2022/11/15 10:20:27;;;;;;;4.30;1.45;;;;;;;12.16;86.57;100688.88;5023142;28;20029;-62
2022/11/15 10:23:06;;;;;;;5.40;1.40;;;;;;;12.26;87.67;100698.53;5020669;28;20048;-58
2022/11/15 10:25:33;;;;;;;4.75;1.20;;;;;;;12.27;83.66;100697.69;5023195;28;20025;-58
2022/11/15 10:28:06;;;;;;;4.30;1.02;;;;;;;12.28;83.95;100692.53;5022091;28;21085;-59
2022/11/15 10:30:37;;;;;;;6.10;1.35;;;;;;;12.30;84.42;100698.56;5025321;28;20034;-62
2022/11/15 10:33:35;;;;;;;7.07;1.30;;;;;;;12.28;83.04;100687.38;5013857;28;20785;-57
2022/11/15 10:36:09;;;;;;;3.70;1.30;;;;;;;12.27;83.34;100677.91;5021423;28;20471;-58
2022/11/15 10:38:50;;;;;;;5.63;1.15;;;;;;;12.28;82.73;100671.91;5021272;28;20063;-56
2022/11/15 10:41:18;;;;;;;3.05;1.00;;;;;;;12.26;80.23;100667.59;5021542;28;20029;-58
2022/11/15 10:43:45;;;;;;;5.65;1.10;;;;;;;12.26;79.38;100663.28;5021500;28;20033;-53
2022/11/15 10:46:22;;;;;;;4.28;1.00;;;;;;;12.32;80.87;100665.13;5020541;28;20184;-60
2022/11/15 10:48:48;;;;;;;4.82;1.20;;;;;;;12.30;79.42;100659.91;5020185;28;20025;-60
2022/11/15 10:51:28;;;;;;;2.35;1.00;;;;;;;12.39;80.00;100660.94;5020066;28;20793;-60
2022/11/15 10:53:55;;;;;;;2.78;0.90;;;;;;;12.38;79.33;100654.91;5020110;28;20517;-60
2022/11/15 10:56:23;;;;;;;3.75;0.98;;;;;;;12.43;76.81;100654.97;5019197;28;20029;-60
2022/11/15 10:58:55;;;;;;;2.63;1.08;;;;;;;12.48;77.11;100654.19;5020165;28;20025;-59
2022/11/15 11:01:26;;;;;;;5.65;1.13;;;;;;;12.52;76.55;100649.97;5021723;28;20036;-56
2022/11/15 11:03:58;;;;;;;4.80;0.98;;;;;;;12.58;76.87;100650.94;5024906;28;20036;-53
2022/11/15 11:06:24;;;;;;;4.88;1.30;;;;;;;12.61;76.76;100642.38;5023210;28;20041;-58
2022/11/15 11:09:01;;;;;;;7.70;1.10;;;;;;;12.64;75.98;100647.59;5026032;28;20026;-51
2022/11/15 11:11:50;;;;;;;6.40;1.10;;;;;;;12.71;76.38;100628.78;5022122;28;20066;-62
2022/11/15 11:14:19;;;;;;;;;;;;;;;12.78;76.93;100632.31;5022127;28;20033;-53
2022/11/15 11:16:52;;;;;;;4.93;0.90;;;;;;;12.74;74.11;100636.59;5020410;28;20477;-58
2022/11/15 11:19:32;;;;;;;4.65;1.20;;;;;;;12.77;74.30;100633.19;5021991;28;20116;-51
2022/11/15 11:22:26;;;;;;;4.55;0.85;;;;;;;12.81;74.94;100627.22;5022892;28;20033;-58
2022/11/15 11:25:09;;;;;;;6.43;0.90;;;;;;;12.81;74.97;100610.03;5022613;28;20079;-57
2022/11/15 11:27:37;;;;;;;4.72;0.90;;;;;;;12.75;73.92;100609.94;5025360;28;20565;-52
2022/11/15 11:30:24;;;;;;;3.78;0.85;;;;;;;12.81;75.69;100604.00;5024599;28;20029;-54
2022/11/15 11:33:13;;;;;;;8.48;1.00;;;;;;;12.79;75.73;100590.19;5025488;28;20037;-49
2022/11/15 11:35:51;;;;;;;3.95;1.13;;;;;;;12.75;76.10;100593.59;4981359;28;20042;-61